sensor_id;sensor_type;location;lat;lon;timestamp;P1;durP1;ratioP1;P2;durP2;ratioP2
19113;SDS011;9689;51.052;13.772;2023-08-01T00:00:14;6.57;;;2.90;;
19113;SDS011;9689;51.052;13.772;2023-08-01T00:05:16;8.25;;;3.83;;
19113;SDS011;9689;51.052;13.772;2023-08-01T00:10:17;6.95;;;2.67;;
19113;SDS011;9689;51.052;13.772;2023-08-01T00:15:19;7.00;;;2.88;;
19113;SDS011;9689;51.052;13.772;2023-08-01T00:20:20;5.75;;;2.80;;
19113;SDS011;9689;51.052;13.772;2023-08-01T00:25:21;4.72;;;2.80;;
19113;SDS011;9689;51.052;13.772;2023-08-01T00:30:23;9.98;;;2.75;;
19113;SDS011;9689;51.052;13.772;2023-08-01T00:35:24;6.80;;;2.47;;
19113;SDS011;9689;51.052;13.772;2023-08-01T00:40:29;6.32;;;2.70;;
19113;SDS011;9689;51.052;13.772;2023-08-01T00:45:31;8.90;;;2.88;;
19113;SDS011;9689;51.052;13.772;2023-08-01T00:50:32;7.95;;;3.30;;
19113;SDS011;9689;51.052;13.772;2023-08-01T00:55:33;6.90;;;2.92;;
19113;SDS011;9689;51.052;13.772;2023-08-01T01:00:37;6.20;;;2.83;;
19113;SDS011;9689;51.052;13.772;2023-08-01T01:05:39;6.07;;;2.17;;
19113;SDS011;9689;51.052;13.772;2023-08-01T01:10:43;6.47;;;2.75;;
19113;SDS011;9689;51.052;13.772;2023-08-01T01:15:45;6.90;;;2.75;;
19113;SDS011;9689;51.052;13.772;2023-08-01T01:20:47;5.80;;;2.60;;
19113;SDS011;9689;51.052;13.772;2023-08-01T01:25:48;7.28;;;2.40;;
19113;SDS011;9689;51.052;13.772;2023-08-01T01:30:51;4.90;;;2.35;;
19113;SDS011;9689;51.052;13.772;2023-08-01T01:35:55;8.52;;;3.28;;
19113;SDS011;9689;51.052;13.772;2023-08-01T01:40:55;7.50;;;2.90;;
19113;SDS011;9689;51.052;13.772;2023-08-01T01:45:56;6.05;;;2.78;;
19113;SDS011;9689;51.052;13.772;2023-08-01T01:50:58;6.00;;;2.47;;
19113;SDS011;9689;51.052;13.772;2023-08-01T01:55:59;7.90;;;3.17;;
19113;SDS011;9689;51.052;13.772;2023-08-01T02:01:00;7.82;;;3.25;;
19113;SDS011;9689;51.052;13.772;2023-08-01T02:06:02;5.38;;;3.05;;
19113;SDS011;9689;51.052;13.772;2023-08-01T02:11:03;4.70;;;2.60;;
19113;SDS011;9689;51.052;13.772;2023-08-01T02:16:04;5.75;;;2.97;;
19113;SDS011;9689;51.052;13.772;2023-08-01T02:21:06;8.32;;;3.22;;
19113;SDS011;9689;51.052;13.772;2023-08-01T02:26:08;7.78;;;3.42;;
19113;SDS011;9689;51.052;13.772;2023-08-01T02:31:09;7.68;;;3.70;;
19113;SDS011;9689;51.052;13.772;2023-08-01T02:36:11;7.07;;;3.38;;
19113;SDS011;9689;51.052;13.772;2023-08-01T02:41:12;6.55;;;3.00;;
19113;SDS011;9689;51.052;13.772;2023-08-01T02:46:12;4.88;;;3.38;;
19113;SDS011;9689;51.052;13.772;2023-08-01T02:51:15;8.50;;;3.38;;
19113;SDS011;9689;51.052;13.772;2023-08-01T02:56:15;4.53;;;3.15;;
19113;SDS011;9689;51.052;13.772;2023-08-01T03:01:16;7.57;;;3.58;;
19113;SDS011;9689;51.052;13.772;2023-08-01T03:06:19;5.93;;;3.30;;
19113;SDS011;9689;51.052;13.772;2023-08-01T03:11:19;7.00;;;3.60;;
19113;SDS011;9689;51.052;13.772;2023-08-01T03:16:21;7.07;;;3.70;;
19113;SDS011;9689;51.052;13.772;2023-08-01T03:21:23;6.60;;;3.53;;
19113;SDS011;9689;51.052;13.772;2023-08-01T03:26:25;7.95;;;4.05;;
19113;SDS011;9689;51.052;13.772;2023-08-01T03:31:27;6.07;;;3.58;;
19113;SDS011;9689;51.052;13.772;2023-08-01T03:36:30;5.63;;;3.08;;
19113;SDS011;9689;51.052;13.772;2023-08-01T03:41:31;8.73;;;4.15;;
19113;SDS011;9689;51.052;13.772;2023-08-01T03:46:32;7.38;;;3.45;;
19113;SDS011;9689;51.052;13.772;2023-08-01T03:51:34;7.07;;;3.88;;
19113;SDS011;9689;51.052;13.772;2023-08-01T03:56:35;7.55;;;3.40;;
19113;SDS011;9689;51.052;13.772;2023-08-01T04:01:38;5.55;;;3.58;;
19113;SDS011;9689;51.052;13.772;2023-08-01T04:06:40;12.98;;;3.90;;
19113;SDS011;9689;51.052;13.772;2023-08-01T04:11:42;5.60;;;3.63;;
19113;SDS011;9689;51.052;13.772;2023-08-01T04:16:43;8.90;;;3.67;;
19113;SDS011;9689;51.052;13.772;2023-08-01T04:21:45;8.98;;;3.72;;
19113;SDS011;9689;51.052;13.772;2023-08-01T04:26:46;6.75;;;3.30;;
19113;SDS011;9689;51.052;13.772;2023-08-01T04:31:47;6.68;;;4.20;;
19113;SDS011;9689;51.052;13.772;2023-08-01T04:36:49;10.30;;;4.88;;
19113;SDS011;9689;51.052;13.772;2023-08-01T04:41:50;7.53;;;3.88;;
19113;SDS011;9689;51.052;13.772;2023-08-01T04:46:52;6.57;;;3.80;;
19113;SDS011;9689;51.052;13.772;2023-08-01T04:51:56;8.18;;;3.95;;
19113;SDS011;9689;51.052;13.772;2023-08-01T04:56:56;7.43;;;4.57;;
19113;SDS011;9689;51.052;13.772;2023-08-01T05:01:57;6.28;;;4.40;;
19113;SDS011;9689;51.052;13.772;2023-08-01T05:07:03;9.18;;;4.88;;
19113;SDS011;9689;51.052;13.772;2023-08-01T05:12:05;7.28;;;5.50;;
19113;SDS011;9689;51.052;13.772;2023-08-01T05:17:08;8.05;;;5.00;;
19113;SDS011;9689;51.052;13.772;2023-08-01T05:22:10;8.65;;;5.70;;
19113;SDS011;9689;51.052;13.772;2023-08-01T05:27:11;8.60;;;5.50;;
19113;SDS011;9689;51.052;13.772;2023-08-01T05:32:11;9.50;;;5.90;;
19113;SDS011;9689;51.052;13.772;2023-08-01T05:37:14;8.27;;;5.60;;
19113;SDS011;9689;51.052;13.772;2023-08-01T05:42:14;7.63;;;5.97;;
19113;SDS011;9689;51.052;13.772;2023-08-01T05:47:15;9.98;;;6.35;;
19113;SDS011;9689;51.052;13.772;2023-08-01T05:52:17;8.73;;;7.13;;
19113;SDS011;9689;51.052;13.772;2023-08-01T05:57:18;13.27;;;7.18;;
19113;SDS011;9689;51.052;13.772;2023-08-01T06:02:19;7.85;;;6.47;;
19113;SDS011;9689;51.052;13.772;2023-08-01T06:07:21;10.00;;;7.80;;
19113;SDS011;9689;51.052;13.772;2023-08-01T06:12:23;12.07;;;7.80;;
19113;SDS011;9689;51.052;13.772;2023-08-01T06:17:23;12.10;;;8.05;;
19113;SDS011;9689;51.052;13.772;2023-08-01T06:22:26;8.80;;;6.70;;
19113;SDS011;9689;51.052;13.772;2023-08-01T06:27:26;9.27;;;7.28;;
19113;SDS011;9689;51.052;13.772;2023-08-01T06:32:27;10.05;;;7.68;;
19113;SDS011;9689;51.052;13.772;2023-08-01T06:37:29;8.88;;;6.13;;
19113;SDS011;9689;51.052;13.772;2023-08-01T06:42:31;11.27;;;6.50;;
19113;SDS011;9689;51.052;13.772;2023-08-01T06:47:32;6.82;;;5.38;;
19113;SDS011;9689;51.052;13.772;2023-08-01T06:52:34;3.03;;;2.42;;
19113;SDS011;9689;51.052;13.772;2023-08-01T06:57:35;2.10;;;1.40;;
19113;SDS011;9689;51.052;13.772;2023-08-01T07:02:36;3.95;;;2.42;;
19113;SDS011;9689;51.052;13.772;2023-08-01T07:07:38;4.03;;;2.15;;
19113;SDS011;9689;51.052;13.772;2023-08-01T07:12:39;1.65;;;1.08;;
19113;SDS011;9689;51.052;13.772;2023-08-01T07:17:40;2.30;;;1.20;;
19113;SDS011;9689;51.052;13.772;2023-08-01T07:22:43;3.13;;;1.48;;
19113;SDS011;9689;51.052;13.772;2023-08-01T07:27:46;1.80;;;1.15;;
19113;SDS011;9689;51.052;13.772;2023-08-01T07:32:47;3.03;;;1.27;;
19113;SDS011;9689;51.052;13.772;2023-08-01T07:37:49;1.30;;;1.00;;
19113;SDS011;9689;51.052;13.772;2023-08-01T07:42:50;2.47;;;1.10;;
19113;SDS011;9689;51.052;13.772;2023-08-01T07:47:51;2.42;;;1.27;;
19113;SDS011;9689;51.052;13.772;2023-08-01T07:52:56;4.70;;;1.27;;
19113;SDS011;9689;51.052;13.772;2023-08-01T07:57:58;2.97;;;1.30;;
19113;SDS011;9689;51.052;13.772;2023-08-01T08:02:58;2.30;;;0.88;;
19113;SDS011;9689;51.052;13.772;2023-08-01T08:08:01;2.35;;;1.45;;
19113;SDS011;9689;51.052;13.772;2023-08-01T08:13:02;1.23;;;1.05;;
19113;SDS011;9689;51.052;13.772;2023-08-01T08:18:02;2.08;;;0.98;;
19113;SDS011;9689;51.052;13.772;2023-08-01T08:23:05;1.85;;;1.48;;
19113;SDS011;9689;51.052;13.772;2023-08-01T08:28:06;1.00;;;0.88;;
19113;SDS011;9689;51.052;13.772;2023-08-01T08:33:08;1.98;;;0.98;;
19113;SDS011;9689;51.052;13.772;2023-08-01T08:38:13;1.08;;;0.82;;
19113;SDS011;9689;51.052;13.772;2023-08-01T08:43:13;0.68;;;0.60;;
19113;SDS011;9689;51.052;13.772;2023-08-01T08:48:17;2.05;;;1.00;;
19113;SDS011;9689;51.052;13.772;2023-08-01T08:53:20;2.08;;;0.98;;
19113;SDS011;9689;51.052;13.772;2023-08-01T08:58:21;1.58;;;0.60;;
19113;SDS011;9689;51.052;13.772;2023-08-01T09:03:23;2.83;;;1.15;;
19113;SDS011;9689;51.052;13.772;2023-08-01T09:08:27;1.75;;;0.80;;
19113;SDS011;9689;51.052;13.772;2023-08-01T09:13:30;2.13;;;0.80;;
19113;SDS011;9689;51.052;13.772;2023-08-01T09:18:31;2.10;;;0.80;;
19113;SDS011;9689;51.052;13.772;2023-08-01T09:23:33;1.23;;;0.73;;
19113;SDS011;9689;51.052;13.772;2023-08-01T09:28:34;1.42;;;0.73;;
19113;SDS011;9689;51.052;13.772;2023-08-01T09:33:38;1.70;;;0.60;;
19113;SDS011;9689;51.052;13.772;2023-08-01T09:38:41;1.25;;;0.60;;
19113;SDS011;9689;51.052;13.772;2023-08-01T09:43:42;1.48;;;0.60;;
19113;SDS011;9689;51.052;13.772;2023-08-01T09:48:43;1.20;;;0.80;;
19113;SDS011;9689;51.052;13.772;2023-08-01T09:53:49;2.83;;;0.82;;
19113;SDS011;9689;51.052;13.772;2023-08-01T09:58:52;3.83;;;0.60;;
19113;SDS011;9689;51.052;13.772;2023-08-01T10:03:54;0.73;;;0.57;;
19113;SDS011;9689;51.052;13.772;2023-08-01T10:08:59;0.93;;;0.57;;
19113;SDS011;9689;51.052;13.772;2023-08-01T10:14:02;0.98;;;0.50;;
19113;SDS011;9689;51.052;13.772;2023-08-01T10:19:04;2.60;;;0.50;;
19113;SDS011;9689;51.052;13.772;2023-08-01T10:24:08;3.95;;;0.73;;
19113;SDS011;9689;51.052;13.772;2023-08-01T10:29:10;1.02;;;0.73;;
19113;SDS011;9689;51.052;13.772;2023-08-01T10:34:12;1.20;;;0.80;;
19113;SDS011;9689;51.052;13.772;2023-08-01T10:39:20;0.70;;;0.60;;
19113;SDS011;9689;51.052;13.772;2023-08-01T10:44:22;4.20;;;0.90;;
19113;SDS011;9689;51.052;13.772;2023-08-01T10:49:33;1.50;;;0.63;;
19113;SDS011;9689;51.052;13.772;2023-08-01T10:54:37;1.27;;;0.70;;
19113;SDS011;9689;51.052;13.772;2023-08-01T10:59:40;0.68;;;0.60;;
19113;SDS011;9689;51.052;13.772;2023-08-01T11:04:41;1.00;;;0.60;;
19113;SDS011;9689;51.052;13.772;2023-08-01T11:09:44;0.80;;;0.40;;
19113;SDS011;9689;51.052;13.772;2023-08-01T11:14:45;0.95;;;0.65;;
19113;SDS011;9689;51.052;13.772;2023-08-01T11:19:46;0.93;;;0.65;;
19113;SDS011;9689;51.052;13.772;2023-08-01T11:24:50;0.95;;;0.50;;
19113;SDS011;9689;51.052;13.772;2023-08-01T11:29:51;2.50;;;1.08;;
19113;SDS011;9689;51.052;13.772;2023-08-01T11:34:52;0.88;;;0.70;;
19113;SDS011;9689;51.052;13.772;2023-08-01T11:39:54;1.00;;;0.77;;
19113;SDS011;9689;51.052;13.772;2023-08-01T11:45:06;2.00;;;0.50;;
19113;SDS011;9689;51.052;13.772;2023-08-01T11:50:08;2.40;;;0.68;;
19113;SDS011;9689;51.052;13.772;2023-08-01T11:55:18;6.32;;;0.70;;
19113;SDS011;9689;51.052;13.772;2023-08-01T12:00:21;0.80;;;0.65;;
19113;SDS011;9689;51.052;13.772;2023-08-01T12:05:23;2.60;;;0.90;;
19113;SDS011;9689;51.052;13.772;2023-08-01T12:10:26;1.38;;;0.80;;
19113;SDS011;9689;51.052;13.772;2023-08-01T12:15:37;1.60;;;0.90;;
19113;SDS011;9689;51.052;13.772;2023-08-01T12:20:38;0.70;;;0.57;;
19113;SDS011;9689;51.052;13.772;2023-08-01T12:25:40;4.28;;;0.95;;
19113;SDS011;9689;51.052;13.772;2023-08-01T12:30:41;3.80;;;0.70;;
19113;SDS011;9689;51.052;13.772;2023-08-01T12:35:43;1.48;;;0.80;;
19113;SDS011;9689;51.052;13.772;2023-08-01T12:40:46;1.55;;;0.73;;
19113;SDS011;9689;51.052;13.772;2023-08-01T12:45:47;1.98;;;0.80;;
19113;SDS011;9689;51.052;13.772;2023-08-01T12:50:51;5.75;;;0.85;;
19113;SDS011;9689;51.052;13.772;2023-08-01T12:55:54;4.45;;;1.00;;
19113;SDS011;9689;51.052;13.772;2023-08-01T13:00:55;1.30;;;0.80;;
19113;SDS011;9689;51.052;13.772;2023-08-01T13:05:56;1.85;;;0.90;;
19113;SDS011;9689;51.052;13.772;2023-08-01T13:10:59;4.05;;;1.35;;
19113;SDS011;9689;51.052;13.772;2023-08-01T13:16:00;2.03;;;1.00;;
19113;SDS011;9689;51.052;13.772;2023-08-01T13:21:00;10.35;;;1.52;;
19113;SDS011;9689;51.052;13.772;2023-08-01T13:26:03;3.03;;;1.23;;
19113;SDS011;9689;51.052;13.772;2023-08-01T13:31:03;4.15;;;1.38;;
19113;SDS011;9689;51.052;13.772;2023-08-01T13:36:04;1.67;;;1.02;;
19113;SDS011;9689;51.052;13.772;2023-08-01T13:41:07;4.95;;;1.73;;
19113;SDS011;9689;51.052;13.772;2023-08-01T13:46:11;2.58;;;1.10;;
19113;SDS011;9689;51.052;13.772;2023-08-01T13:51:27;4.40;;;1.23;;
19113;SDS011;9689;51.052;13.772;2023-08-01T13:56:32;3.78;;;1.40;;
19113;SDS011;9689;51.052;13.772;2023-08-01T14:01:36;4.60;;;1.48;;
19113;SDS011;9689;51.052;13.772;2023-08-01T14:06:38;3.80;;;2.10;;
19113;SDS011;9689;51.052;13.772;2023-08-01T14:11:42;2.60;;;1.83;;
19113;SDS011;9689;51.052;13.772;2023-08-01T14:16:44;5.63;;;1.95;;
19113;SDS011;9689;51.052;13.772;2023-08-01T14:21:45;3.40;;;1.70;;
19113;SDS011;9689;51.052;13.772;2023-08-01T14:26:47;4.10;;;2.10;;
19113;SDS011;9689;51.052;13.772;2023-08-01T14:31:49;8.65;;;2.30;;
19113;SDS011;9689;51.052;13.772;2023-08-01T14:36:50;4.82;;;2.45;;
19113;SDS011;9689;51.052;13.772;2023-08-01T14:41:52;6.65;;;2.63;;
19113;SDS011;9689;51.052;13.772;2023-08-01T14:47:04;2.40;;;1.90;;
19113;SDS011;9689;51.052;13.772;2023-08-01T14:52:05;3.95;;;2.42;;
19113;SDS011;9689;51.052;13.772;2023-08-01T14:57:08;4.40;;;1.92;;
19113;SDS011;9689;51.052;13.772;2023-08-01T15:02:09;4.63;;;2.35;;
19113;SDS011;9689;51.052;13.772;2023-08-01T15:07:10;4.18;;;2.75;;
19113;SDS011;9689;51.052;13.772;2023-08-01T15:12:13;5.00;;;2.40;;
19113;SDS011;9689;51.052;13.772;2023-08-01T15:17:13;5.18;;;2.60;;
19113;SDS011;9689;51.052;13.772;2023-08-01T15:22:14;4.10;;;2.80;;
19113;SDS011;9689;51.052;13.772;2023-08-01T15:27:17;2.75;;;2.33;;
19113;SDS011;9689;51.052;13.772;2023-08-01T15:32:18;3.35;;;2.78;;
19113;SDS011;9689;51.052;13.772;2023-08-01T15:37:18;5.43;;;2.70;;
19113;SDS011;9689;51.052;13.772;2023-08-01T15:42:21;6.70;;;2.80;;
19113;SDS011;9689;51.052;13.772;2023-08-01T15:47:21;3.15;;;2.50;;
19113;SDS011;9689;51.052;13.772;2023-08-01T15:52:22;6.95;;;2.35;;
19113;SDS011;9689;51.052;13.772;2023-08-01T15:57:24;4.47;;;2.67;;
19113;SDS011;9689;51.052;13.772;2023-08-01T16:02:25;3.15;;;1.88;;
19113;SDS011;9689;51.052;13.772;2023-08-01T16:07:26;3.55;;;2.58;;
19113;SDS011;9689;51.052;13.772;2023-08-01T16:12:28;2.88;;;2.08;;
19113;SDS011;9689;51.052;13.772;2023-08-01T16:17:29;2.30;;;1.35;;
19113;SDS011;9689;51.052;13.772;2023-08-01T16:22:30;3.53;;;1.60;;
19113;SDS011;9689;51.052;13.772;2023-08-01T16:27:32;2.33;;;1.60;;
19113;SDS011;9689;51.052;13.772;2023-08-01T16:32:33;2.60;;;1.08;;
19113;SDS011;9689;51.052;13.772;2023-08-01T16:37:34;1.52;;;1.35;;
19113;SDS011;9689;51.052;13.772;2023-08-01T16:42:36;3.05;;;1.30;;
19113;SDS011;9689;51.052;13.772;2023-08-01T16:47:37;1.65;;;1.05;;
19113;SDS011;9689;51.052;13.772;2023-08-01T16:52:42;2.67;;;1.27;;
19113;SDS011;9689;51.052;13.772;2023-08-01T16:57:44;1.80;;;1.23;;
19113;SDS011;9689;51.052;13.772;2023-08-01T17:02:45;1.95;;;1.30;;
19113;SDS011;9689;51.052;13.772;2023-08-01T17:07:46;2.25;;;1.13;;
19113;SDS011;9689;51.052;13.772;2023-08-01T17:12:49;2.63;;;1.80;;
19113;SDS011;9689;51.052;13.772;2023-08-01T17:17:50;2.33;;;1.20;;
19113;SDS011;9689;51.052;13.772;2023-08-01T17:22:50;2.38;;;1.45;;
19113;SDS011;9689;51.052;13.772;2023-08-01T17:27:53;2.15;;;1.50;;
19113;SDS011;9689;51.052;13.772;2023-08-01T17:32:55;2.22;;;1.38;;
19113;SDS011;9689;51.052;13.772;2023-08-01T17:37:56;2.80;;;1.48;;
19113;SDS011;9689;51.052;13.772;2023-08-01T17:42:58;9.30;;;4.45;;
19113;SDS011;9689;51.052;13.772;2023-08-01T17:48:00;4.65;;;1.75;;
19113;SDS011;9689;51.052;13.772;2023-08-01T17:53:01;3.85;;;1.92;;
19113;SDS011;9689;51.052;13.772;2023-08-01T17:58:03;2.25;;;1.60;;
19113;SDS011;9689;51.052;13.772;2023-08-01T18:03:10;3.10;;;1.48;;
19113;SDS011;9689;51.052;13.772;2023-08-01T18:08:13;5.82;;;1.38;;
19113;SDS011;9689;51.052;13.772;2023-08-01T18:13:15;3.90;;;1.40;;
19113;SDS011;9689;51.052;13.772;2023-08-01T18:18:16;2.90;;;1.58;;
19113;SDS011;9689;51.052;13.772;2023-08-01T18:23:18;4.43;;;1.60;;
19113;SDS011;9689;51.052;13.772;2023-08-01T18:28:20;4.47;;;1.75;;
19113;SDS011;9689;51.052;13.772;2023-08-01T18:33:21;4.10;;;1.58;;
19113;SDS011;9689;51.052;13.772;2023-08-01T18:38:25;4.35;;;1.60;;
19113;SDS011;9689;51.052;13.772;2023-08-01T18:43:27;3.38;;;1.40;;
19113;SDS011;9689;51.052;13.772;2023-08-01T18:48:28;3.67;;;1.70;;
19113;SDS011;9689;51.052;13.772;2023-08-01T18:53:30;5.78;;;1.77;;
19113;SDS011;9689;51.052;13.772;2023-08-01T18:58:32;5.05;;;1.95;;
19113;SDS011;9689;51.052;13.772;2023-08-01T19:03:32;3.10;;;1.70;;
19113;SDS011;9689;51.052;13.772;2023-08-01T19:08:34;4.07;;;2.00;;
19113;SDS011;9689;51.052;13.772;2023-08-01T19:13:37;5.25;;;1.90;;
19113;SDS011;9689;51.052;13.772;2023-08-01T19:18:37;3.95;;;1.85;;
19113;SDS011;9689;51.052;13.772;2023-08-01T19:23:38;2.58;;;1.70;;
19113;SDS011;9689;51.052;13.772;2023-08-01T19:28:41;4.40;;;1.90;;
19113;SDS011;9689;51.052;13.772;2023-08-01T19:33:44;3.88;;;2.33;;
19113;SDS011;9689;51.052;13.772;2023-08-01T19:38:45;2.78;;;1.70;;
19113;SDS011;9689;51.052;13.772;2023-08-01T19:43:47;4.13;;;1.77;;
19113;SDS011;9689;51.052;13.772;2023-08-01T19:48:48;5.95;;;1.83;;
19113;SDS011;9689;51.052;13.772;2023-08-01T19:53:50;6.00;;;1.88;;
19113;SDS011;9689;51.052;13.772;2023-08-01T19:58:52;6.07;;;2.20;;
19113;SDS011;9689;51.052;13.772;2023-08-01T20:03:54;3.05;;;2.28;;
19113;SDS011;9689;51.052;13.772;2023-08-01T20:08:59;2.83;;;1.92;;
19113;SDS011;9689;51.052;13.772;2023-08-01T20:14:01;4.95;;;2.35;;
19113;SDS011;9689;51.052;13.772;2023-08-01T20:19:02;3.83;;;2.42;;
19113;SDS011;9689;51.052;13.772;2023-08-01T20:24:04;3.63;;;2.00;;
19113;SDS011;9689;51.052;13.772;2023-08-01T20:29:06;4.00;;;2.17;;
19113;SDS011;9689;51.052;13.772;2023-08-01T20:34:07;3.58;;;2.00;;
19113;SDS011;9689;51.052;13.772;2023-08-01T20:39:08;4.75;;;2.45;;
19113;SDS011;9689;51.052;13.772;2023-08-01T20:44:10;4.85;;;2.25;;
19113;SDS011;9689;51.052;13.772;2023-08-01T20:49:11;11.52;;;2.70;;
19113;SDS011;9689;51.052;13.772;2023-08-01T20:54:12;3.90;;;2.20;;
19113;SDS011;9689;51.052;13.772;2023-08-01T20:59:14;4.15;;;2.63;;
19113;SDS011;9689;51.052;13.772;2023-08-01T21:04:16;6.90;;;2.88;;
19113;SDS011;9689;51.052;13.772;2023-08-01T21:09:17;3.88;;;2.67;;
19113;SDS011;9689;51.052;13.772;2023-08-01T21:14:19;5.45;;;3.10;;
19113;SDS011;9689;51.052;13.772;2023-08-01T21:19:20;5.70;;;3.13;;
19113;SDS011;9689;51.052;13.772;2023-08-01T21:24:21;6.15;;;2.72;;
19113;SDS011;9689;51.052;13.772;2023-08-01T21:29:23;6.95;;;3.50;;
19113;SDS011;9689;51.052;13.772;2023-08-01T21:34:24;6.60;;;3.40;;
19113;SDS011;9689;51.052;13.772;2023-08-01T21:39:25;6.63;;;3.35;;
19113;SDS011;9689;51.052;13.772;2023-08-01T21:44:27;5.28;;;2.60;;
19113;SDS011;9689;51.052;13.772;2023-08-01T21:49:28;3.33;;;2.50;;
19113;SDS011;9689;51.052;13.772;2023-08-01T21:54:29;7.25;;;2.95;;
19113;SDS011;9689;51.052;13.772;2023-08-01T21:59:31;4.63;;;2.42;;
19113;SDS011;9689;51.052;13.772;2023-08-01T22:04:32;4.45;;;2.28;;
19113;SDS011;9689;51.052;13.772;2023-08-01T22:09:33;5.95;;;2.17;;
19113;SDS011;9689;51.052;13.772;2023-08-01T22:14:35;3.50;;;2.05;;
19113;SDS011;9689;51.052;13.772;2023-08-01T22:19:36;3.72;;;1.98;;
19113;SDS011;9689;51.052;13.772;2023-08-01T22:24:37;3.58;;;2.60;;
19113;SDS011;9689;51.052;13.772;2023-08-01T22:29:40;6.78;;;2.22;;
19113;SDS011;9689;51.052;13.772;2023-08-01T22:34:41;4.50;;;1.95;;
19113;SDS011;9689;51.052;13.772;2023-08-01T22:39:42;6.20;;;2.00;;
19113;SDS011;9689;51.052;13.772;2023-08-01T22:44:44;4.00;;;1.95;;
19113;SDS011;9689;51.052;13.772;2023-08-01T22:49:45;2.88;;;1.98;;
19113;SDS011;9689;51.052;13.772;2023-08-01T22:54:58;2.25;;;1.60;;
19113;SDS011;9689;51.052;13.772;2023-08-01T23:00:00;4.65;;;2.22;;
19113;SDS011;9689;51.052;13.772;2023-08-01T23:05:01;6.35;;;2.10;;
19113;SDS011;9689;51.052;13.772;2023-08-01T23:10:03;3.53;;;1.50;;
19113;SDS011;9689;51.052;13.772;2023-08-01T23:15:07;2.60;;;1.40;;
19113;SDS011;9689;51.052;13.772;2023-08-01T23:20:09;3.33;;;1.50;;
19113;SDS011;9689;51.052;13.772;2023-08-01T23:25:10;3.08;;;1.83;;
19113;SDS011;9689;51.052;13.772;2023-08-01T23:30:12;3.50;;;1.35;;
19113;SDS011;9689;51.052;13.772;2023-08-01T23:35:13;3.05;;;1.45;;
19113;SDS011;9689;51.052;13.772;2023-08-01T23:40:15;8.02;;;1.70;;
19113;SDS011;9689;51.052;13.772;2023-08-01T23:45:18;4.25;;;1.55;;
19113;SDS011;9689;51.052;13.772;2023-08-01T23:50:19;6.03;;;1.60;;
19113;SDS011;9689;51.052;13.772;2023-08-01T23:55:19;4.78;;;1.92;;
